Time;durP1;ratioP1;P1;durP2;ratioP2;P2;SDS_P1;SDS_P2;PMS_P1;PMS_P2;Temp;Humidity;BMP_temperature;BMP_pressure;BME280_temperature;BME280_humidity;BME280_pressure;Samples;Min_cycle;Max_cycle;Signal;HPM_P1;HPM_P2
2023/04/11 00:00:23;;;;;;;2.78;1.35;;;15.40;68.60;;;;;;10286726;28;20093;-59
2023/04/11 00:05:25;;;;;;;3.50;1.80;;;15.30;68.50;;;;;;10269200;28;20637;-58
2023/04/11 00:10:25;;;;;;;2.15;1.15;;;15.30;68.60;;;;;;10286585;28;20106;-59
2023/04/11 00:15:26;;;;;;;4.30;1.63;;;15.40;68.60;;;;;;10268556;28;20026;-59
2023/04/11 00:20:27;;;;;;;3.22;1.25;;;15.30;68.50;;;;;;10285637;28;20109;-59
2023/04/11 00:25:28;;;;;;;2.88;1.30;;;15.30;68.50;;;;;;10267981;28;20026;-58
2023/04/11 00:30:29;;;;;;;3.83;1.60;;;15.30;69.10;;;;;;10285320;28;20027;-59
2023/04/11 00:35:33;;;;;;;3.40;1.65;;;15.30;68.60;;;;;;10285312;28;20385;-59
2023/04/11 00:40:33;;;;;;;5.68;1.40;;;15.30;68.50;;;;;;10285357;28;20027;-58
2023/04/11 00:45:35;;;;;;;1.77;1.10;;;15.30;68.50;;;;;;10285017;28;20046;-59
2023/04/11 00:50:41;;;;;;;3.30;1.95;;;15.30;68.50;;;;;;10276363;28;20037;-59
2023/04/11 00:55:41;;;;;;;3.45;1.35;;;15.30;68.50;;;;;;10284317;28;20467;-59
2023/04/11 01:00:43;;;;;;;1.98;1.15;;;15.30;68.60;;;;;;10284469;28;20134;-58
2023/04/11 01:05:45;;;;;;;3.25;1.35;;;15.30;68.50;;;;;;10267196;28;20023;-59
2023/04/11 01:10:46;;;;;;;3.80;2.60;;;15.30;68.50;;;;;;10266890;28;20046;-59
2023/04/11 01:15:47;;;;;;;2.78;1.40;;;15.30;68.50;;;;;;10283929;28;20019;-59
2023/04/11 01:20:48;;;;;;;4.60;1.60;;;15.30;68.50;;;;;;10283910;28;20445;-59
2023/04/11 01:25:49;;;;;;;4.47;2.28;;;15.30;68.60;;;;;;10266728;28;20462;-59
2023/04/11 01:30:50;;;;;;;2.80;1.60;;;15.30;68.50;;;;;;10266256;28;20027;-59
2023/04/11 01:35:50;;;;;;;2.20;1.00;;;15.30;68.50;;;;;;10283337;28;20029;-59
2023/04/11 01:40:52;;;;;;;4.30;1.52;;;15.20;68.50;;;;;;10265625;28;20043;-59
2023/04/11 01:45:53;;;;;;;5.47;1.85;;;15.30;68.50;;;;;;10266419;28;20041;-59
2023/04/11 01:50:55;;;;;;;4.07;1.70;;;15.20;68.50;;;;;;10291419;28;20027;-59
2023/04/11 01:55:55;;;;;;;5.00;1.58;;;15.20;68.50;;;;;;10291353;28;20463;-59
2023/04/11 02:00:56;;;;;;;5.47;3.13;;;15.20;68.60;;;;;;10272903;28;20031;-59
2023/04/11 02:05:57;;;;;;;3.53;1.45;;;15.20;68.60;;;;;;10290868;28;20094;-59
2023/04/11 02:10:57;;;;;;;4.18;1.67;;;15.20;68.50;;;;;;10291100;28;20051;-59
2023/04/11 02:16:13;;;;;;;3.42;1.30;;;15.20;68.60;;;;;;10290336;28;20110;-59
2023/04/11 02:21:14;;;;;;;3.53;1.55;;;15.20;68.60;;;;;;10290176;28;20030;-59
2023/04/11 02:26:15;;;;;;;6.05;1.92;;;15.20;68.60;;;;;;10290171;28;20106;-59
2023/04/11 02:31:15;;;;;;;3.58;1.58;;;15.20;68.60;;;;;;10290214;28;20105;-59
2023/04/11 02:36:16;;;;;;;6.05;1.60;;;15.20;68.50;;;;;;10256456;28;20435;-57
2023/04/11 02:41:17;;;;;;;5.35;2.70;;;15.20;68.50;;;;;;10256255;28;20027;-59
2023/04/11 02:46:17;;;;;;;3.90;1.05;;;15.20;68.50;;;;;;10272072;28;20134;-59
2023/04/11 02:51:18;;;;;;;3.55;1.70;;;15.20;68.50;;;;;;10289325;28;20070;-57
2023/04/11 02:56:19;;;;;;;3.17;1.52;;;15.10;68.50;;;;;;10287890;28;20102;-58
2023/04/11 03:01:23;;;;;;;2.42;1.30;;;15.20;68.60;;;;;;10287617;28;20065;-58
2023/04/11 03:06:25;;;;;;;4.25;1.73;;;15.40;67.80;;;;;;10288660;28;20031;-59
2023/04/11 03:11:26;;;;;;;4.88;1.83;;;15.80;66.60;;;;;;10288797;28;20414;-58
2023/04/11 03:16:27;;;;;;;2.83;1.83;;;16.10;65.50;;;;;;10288363;28;20041;-59
2023/04/11 03:21:28;;;;;;;2.45;1.25;;;16.30;64.90;;;;;;10288253;28;20034;-58
2023/04/11 03:26:28;;;;;;;3.45;1.33;;;16.40;64.40;;;;;;10286401;28;20114;-59
2023/04/11 03:31:29;;;;;;;2.08;1.17;;;16.50;64.50;;;;;;10287867;28;20606;-59
2023/04/11 03:36:31;;;;;;;6.60;1.70;;;16.40;64.60;;;;;;10285834;28;20479;-59
2023/04/11 03:41:31;;;;;;;5.82;1.83;;;16.40;64.90;;;;;;10287327;28;20098;-59
2023/04/11 03:46:32;;;;;;;4.47;2.00;;;16.30;65.00;;;;;;10286838;28;20456;-59
2023/04/11 03:51:32;;;;;;;4.03;1.40;;;16.30;64.90;;;;;;10286716;28;20118;-59
2023/04/11 03:56:33;;;;;;;5.05;1.33;;;16.30;65.00;;;;;;10284488;28;20070;-60
2023/04/11 04:01:36;;;;;;;4.78;1.10;;;16.40;64.90;;;;;;10284807;28;20118;-60
2023/04/11 04:06:37;;;;;;;4.95;1.63;;;16.40;65.00;;;;;;10284631;28;20555;-59
2023/04/11 04:11:38;;;;;;;3.50;1.42;;;16.40;65.30;;;;;;10282987;28;20023;-60
2023/04/11 04:16:38;;;;;;;4.80;1.05;;;16.40;65.70;;;;;;10283608;28;20146;-61
2023/04/11 04:21:40;;;;;;;3.78;1.73;;;16.30;65.70;;;;;;10282314;28;20102;-58
2023/04/11 04:26:41;;;;;;;3.53;1.63;;;16.20;66.10;;;;;;10281548;28;20466;-61
2023/04/11 04:31:42;;;;;;;4.75;1.20;;;16.10;66.50;;;;;;10282453;28;20048;-61
2023/04/11 04:36:46;;;;;;;4.18;1.52;;;16.00;66.80;;;;;;10264653;28;20542;-61
2023/04/11 04:41:48;;;;;;;4.88;1.65;;;15.90;66.90;;;;;;10282267;28;20417;-61
2023/04/11 04:46:53;;;;;;;5.88;1.70;;;15.90;67.10;;;;;;10281469;28;20059;-61
2023/04/11 04:51:54;;;;;;;5.07;1.02;;;15.90;67.00;;;;;;10280632;28;20038;-60
2023/04/11 04:56:54;;;;;;;3.75;1.35;;;16.00;66.60;;;;;;10277848;28;20121;-60
2023/04/11 05:01:55;;;;;;;5.60;2.08;;;16.00;66.60;;;;;;10248079;28;20459;-60
2023/04/11 05:06:56;;;;;;;3.50;1.38;;;15.90;66.30;;;;;;10249618;28;20113;-61
2023/04/11 05:11:56;;;;;;;8.05;1.80;;;16.00;66.30;;;;;;10281324;28;20023;-62
2023/04/11 05:16:57;;;;;;;5.68;1.27;;;16.10;66.20;;;;;;10281093;28;20117;-58
2023/04/11 05:21:58;;;;;;;6.15;1.30;;;16.30;66.40;;;;;;10263180;28;20014;-61
2023/04/11 05:26:59;;;;;;;9.75;1.73;;;16.30;66.10;;;;;;10281133;28;20828;-58
2023/04/11 05:32:00;;;;;;;11.93;2.53;;;16.30;67.00;;;;;;10263951;28;20033;-58
2023/04/11 05:37:00;;;;;;;12.40;2.50;;;16.30;67.00;;;;;;10281523;28;20041;-60
2023/04/11 05:42:04;;;;;;;18.02;3.30;;;16.30;67.40;;;;;;10281632;28;20106;-60
2023/04/11 05:47:05;;;;;;;7.80;2.35;;;16.40;67.50;;;;;;10281562;28;20050;-62
2023/04/11 05:52:05;;;;;;;24.25;3.75;;;16.20;67.90;;;;;;10281320;28;20031;-59
2023/04/11 05:57:06;;;;;;;9.52;1.80;;;16.30;68.30;;;;;;10281058;28;20045;-60
2023/04/11 06:02:07;;;;;;;5.78;2.22;;;16.20;67.90;;;;;;10279677;28;20027;-59
2023/04/11 06:07:08;;;;;;;12.40;2.83;;;16.20;68.10;;;;;;10264984;28;20374;-59
2023/04/11 06:12:09;;;;;;;12.40;2.50;;;16.10;68.30;;;;;;10266345;28;20019;-59
2023/04/11 06:17:10;;;;;;;13.00;2.42;;;16.00;68.30;;;;;;10283053;28;20031;-58
2023/04/11 06:22:11;;;;;;;7.80;2.08;;;16.00;68.10;;;;;;10279602;28;20047;-59
2023/04/11 06:27:12;;;;;;;13.40;2.50;;;15.90;68.20;;;;;;10279502;28;20062;-58
2023/04/11 06:32:13;;;;;;;10.10;1.80;;;15.90;68.20;;;;;;10281355;28;20557;-58
2023/04/11 06:37:14;;;;;;;8.25;2.92;;;15.80;68.20;;;;;;10287611;28;20027;-58
2023/04/11 06:42:15;;;;;;;9.18;1.90;;;15.70;68.20;;;;;;10288185;28;20023;-58
2023/04/11 06:47:15;;;;;;;4.28;1.45;;;15.70;68.20;;;;;;10287601;28;20130;-59
2023/04/11 06:52:16;;;;;;;7.05;1.30;;;15.70;68.10;;;;;;10286140;28;20118;-58
2023/04/11 06:57:17;;;;;;;8.18;1.45;;;15.70;68.30;;;;;;10287127;28;20137;-58
2023/04/11 07:02:17;;;;;;;4.40;1.85;;;15.60;68.20;;;;;;10286831;28;20106;-58
2023/04/11 07:07:18;;;;;;;4.32;1.33;;;15.70;67.80;;;;;;10286611;28;20060;-59
2023/04/11 07:12:19;;;;;;;6.40;1.55;;;15.70;67.70;;;;;;10254794;28;20074;-59
2023/04/11 07:17:19;;;;;;;7.45;2.08;;;15.70;67.80;;;;;;10285831;28;20030;-58
2023/04/11 07:22:20;;;;;;;5.55;1.70;;;15.70;67.80;;;;;;10286903;28;20094;-57
2023/04/11 07:27:22;;;;;;;6.28;1.17;;;15.80;67.70;;;;;;10285694;28;20482;-59
2023/04/11 07:32:23;;;;;;;3.75;1.45;;;15.80;67.80;;;;;;10286761;28;20027;-59
2023/04/11 07:37:25;;;;;;;6.43;1.25;;;15.80;67.50;;;;;;10287261;28;20486;-59
2023/04/11 07:42:26;;;;;;;5.57;1.42;;;15.90;67.50;;;;;;10287019;28;20390;-58
2023/04/11 07:47:27;;;;;;;9.82;2.33;;;15.90;67.30;;;;;;10286541;28;20126;-59
2023/04/11 07:52:27;;;;;;;5.10;1.70;;;15.90;67.40;;;;;;10286610;28;20035;-58
2023/04/11 07:57:28;;;;;;;4.78;1.48;;;15.90;67.40;;;;;;10286727;28;20042;-59
2023/04/11 08:02:29;;;;;;;4.05;1.60;;;15.90;67.40;;;;;;10285276;28;20074;-60
2023/04/11 08:07:30;;;;;;;7.03;1.48;;;15.90;67.50;;;;;;10286028;28;20022;-60
2023/04/11 08:12:30;;;;;;;5.72;1.38;;;15.80;67.70;;;;;;10285383;28;20058;-60
2023/04/11 08:17:36;;;;;;;5.50;1.42;;;15.80;67.80;;;;;;10285567;28;20149;-58
2023/04/11 08:22:38;;;;;;;4.10;1.60;;;15.80;67.80;;;;;;10263024;28;20113;-59
2023/04/11 08:27:39;;;;;;;3.25;1.17;;;15.80;67.70;;;;;;10285262;28;20061;-60
2023/04/11 08:32:41;;;;;;;6.18;1.30;;;15.80;67.70;;;;;;10286031;28;20098;-60
2023/04/11 08:37:43;;;;;;;4.95;1.55;;;15.80;67.40;;;;;;10285235;28;20058;-60
2023/04/11 08:42:44;;;;;;;3.17;0.93;;;15.80;67.40;;;;;;10285337;28;20023;-61
2023/04/11 08:47:45;;;;;;;8.60;1.83;;;15.80;67.30;;;;;;10267993;28;20023;-59
2023/04/11 08:52:48;;;;;;;9.55;2.20;;;15.80;67.40;;;;;;10284609;28;20023;-59
2023/04/11 08:57:48;;;;;;;3.63;1.13;;;15.80;67.30;;;;;;10266693;28;20113;-59
2023/04/11 09:03:04;;;;;;;5.65;1.63;;;15.80;67.20;;;;;;10282711;28;20015;-59
2023/04/11 09:08:10;;;;;;;3.17;1.50;;;15.80;67.40;;;;;;10263543;28;20033;-59
2023/04/11 09:13:26;;;;;;;6.60;1.30;;;15.70;67.30;;;;;;10279826;28;20027;-58
2023/04/11 09:18:41;;;;;;;4.45;1.48;;;15.70;67.30;;;;;;10279172;28;20506;-58
2023/04/11 09:23:42;;;;;;;4.68;1.75;;;15.70;67.30;;;;;;10263319;28;20022;-58
2023/04/11 09:28:52;;;;;;;5.28;1.50;;;15.70;67.30;;;;;;10264540;28;20029;-59
2023/04/11 09:33:54;;;;;;;;;;;15.70;67.40;;;;;;10282349;28;20368;-59
2023/04/11 09:38:56;;;;;;;5.97;1.48;;;15.70;67.20;;;;;;10264375;28;20005;-59
2023/04/11 09:43:56;;;;;;;7.45;1.92;;;15.70;67.10;;;;;;10263998;28;20070;-58
2023/04/11 09:49:00;;;;;;;3.33;1.65;;;15.60;67.10;;;;;;10263873;28;20027;-59
2023/04/11 09:54:02;;;;;;;3.33;1.15;;;15.60;67.20;;;;;;10281945;28;20045;-57
2023/04/11 09:59:03;;;;;;;4.72;1.67;;;15.70;67.10;;;;;;10281306;28;20031;-59
2023/04/11 10:04:04;;;;;;;3.55;1.20;;;15.70;66.80;;;;;;10281554;28;20019;-58
2023/04/11 10:09:14;;;;;;;7.72;1.55;;;15.70;66.50;;;;;;10267775;28;20117;-59
2023/04/11 10:14:36;;;;;;;6.53;1.40;;;15.80;66.60;;;;;;10289175;28;20023;-59
2023/04/11 10:19:37;;;;;;;4.05;1.50;;;15.80;66.50;;;;;;10288496;28;20027;-59
2023/04/11 10:24:38;;;;;;;2.85;1.52;;;15.80;66.30;;;;;;10288442;28;20069;-58
2023/04/11 10:29:45;;;;;;;5.28;1.40;;;15.80;66.40;;;;;;10288433;28;20102;-58
2023/04/11 10:34:54;;;;;;;4.43;1.23;;;15.80;66.50;;;;;;10287760;28;20130;-59
2023/04/11 10:40:00;;;;;;;5.38;1.30;;;15.90;66.40;;;;;;10287629;28;20038;-58
2023/04/11 10:45:24;;;;;;;3.63;1.30;;;15.90;66.60;;;;;;10286308;28;20050;-59
2023/04/11 10:50:25;;;;;;;2.95;1.65;;;15.90;65.70;;;;;;10287213;28;20022;-57
2023/04/11 10:55:31;;;;;;;3.33;2.05;;;15.90;65.80;;;;;;10287308;28;20019;-58
2023/04/11 11:00:48;;;;;;;3.28;1.08;;;15.90;65.80;;;;;;10269616;28;20042;-59
2023/04/11 11:06:05;;;;;;;3.22;1.02;;;15.90;65.70;;;;;;10286836;28;20018;-59
2023/04/11 11:11:09;;;;;;;6.18;1.88;;;16.00;65.70;;;;;;10268675;28;20022;-59
2023/04/11 11:16:21;;;;;;;2.53;1.02;;;16.00;65.60;;;;;;10286156;28;20440;-59
2023/04/11 11:21:26;;;;;;;3.13;1.42;;;16.00;65.40;;;;;;10268929;28;20030;-60
2023/04/11 11:26:42;;;;;;;3.30;1.30;;;16.10;65.50;;;;;;10287016;28;20023;-58
2023/04/11 11:31:45;;;;;;;4.95;2.45;;;16.10;65.70;;;;;;10286412;28;20049;-59
2023/04/11 11:36:46;;;;;;;2.75;1.15;;;16.10;65.90;;;;;;10286503;28;20490;-59
2023/04/11 11:41:47;;;;;;;4.60;1.25;;;16.10;66.00;;;;;;10287163;28;20110;-59
2023/04/11 11:47:03;;;;;;;3.70;1.20;;;16.10;65.90;;;;;;10269988;28;20047;-58
2023/04/11 11:52:04;;;;;;;6.22;1.58;;;16.10;65.50;;;;;;10286891;28;20038;-60
2023/04/11 11:57:04;;;;;;;3.00;1.63;;;16.20;65.60;;;;;;10268666;28;20471;-60
2023/04/11 12:02:05;;;;;;;2.35;0.80;;;16.20;65.60;;;;;;10284221;28;20620;-60
2023/04/11 12:07:10;;;;;;;3.78;1.30;;;16.20;65.40;;;;;;10281698;28;20033;-59
2023/04/11 12:12:14;;;;;;;6.07;1.05;;;16.30;65.30;;;;;;10285600;28;20059;-58
2023/04/11 12:17:15;;;;;;;5.88;1.50;;;16.30;65.20;;;;;;10268564;28;20091;-58
2023/04/11 12:22:16;;;;;;;7.60;1.45;;;16.40;64.90;;;;;;10284247;28;20153;-56
2023/04/11 12:27:16;;;;;;;7.95;1.70;;;16.50;65.10;;;;;;10283874;28;20077;-58
2023/04/11 12:32:17;;;;;;;7.47;1.30;;;16.50;65.00;;;;;;10283498;28;20113;-57
2023/04/11 12:37:18;;;;;;;7.45;1.80;;;16.50;65.00;;;;;;10283848;28;20453;-56
2023/04/11 12:42:18;;;;;;;6.68;1.80;;;16.50;64.80;;;;;;10282955;28;20015;-59
2023/04/11 12:47:19;;;;;;;9.68;2.33;;;16.40;65.00;;;;;;10285161;28;20051;-59
2023/04/11 12:52:20;;;;;;;9.25;2.15;;;16.40;65.20;;;;;;10285007;28;20046;-58
2023/04/11 12:57:21;;;;;;;8.25;1.70;;;16.40;65.50;;;;;;10285538;28;20050;-59
2023/04/11 13:02:22;;;;;;;8.43;2.05;;;16.50;65.50;;;;;;10284977;28;20117;-58
2023/04/11 13:07:23;;;;;;;7.28;1.95;;;16.50;65.50;;;;;;10284668;28;20129;-59
2023/04/11 13:12:23;;;;;;;7.65;1.52;;;16.50;66.30;;;;;;10290307;28;20444;-59
2023/04/11 13:17:24;;;;;;;7.80;1.67;;;16.60;65.80;;;;;;10284631;28;20105;-58
2023/04/11 13:22:26;;;;;;;6.88;1.77;;;16.60;65.70;;;;;;10283933;28;20101;-58
2023/04/11 13:27:26;;;;;;;7.45;1.77;;;16.60;65.70;;;;;;10266905;28;20046;-59
2023/04/11 13:32:27;;;;;;;8.32;1.85;;;16.60;65.70;;;;;;10284179;28;20110;-58
2023/04/11 13:37:27;;;;;;;20.48;3.53;;;16.70;65.80;;;;;;10283767;28;20031;-58
2023/04/11 13:42:28;;;;;;;12.02;2.30;;;16.70;65.70;;;;;;10283281;28;20054;-59
2023/04/11 13:47:29;;;;;;;13.52;3.38;;;16.70;65.60;;;;;;10277173;28;20134;-58
2023/04/11 13:52:29;;;;;;;19.63;3.95;;;16.70;65.60;;;;;;10283937;28;20057;-57
2023/04/11 13:57:30;;;;;;;29.58;4.13;;;16.70;65.70;;;;;;10283732;28;20135;-59
2023/04/11 14:02:31;;;;;;;25.85;4.32;;;16.80;65.80;;;;;;10283383;28;20105;-58
2023/04/11 14:07:31;;;;;;;25.45;3.35;;;16.80;65.90;;;;;;10283468;28;20107;-58
2023/04/11 14:12:32;;;;;;;24.15;5.60;;;16.80;66.30;;;;;;10283220;28;20078;-58
2023/04/11 14:17:33;;;;;;;22.20;3.55;;;16.90;66.00;;;;;;10283268;28;20478;-58
2023/04/11 14:22:34;;;;;;;13.13;3.65;;;16.90;65.70;;;;;;10289106;28;20055;-59
2023/04/11 14:27:36;;;;;;;19.20;3.55;;;17.00;65.40;;;;;;10265710;28;20054;-60
2023/04/11 14:32:36;;;;;;;17.88;3.05;;;16.90;65.40;;;;;;10281340;28;20025;-57
2023/04/11 14:37:37;;;;;;;14.85;2.40;;;16.90;65.20;;;;;;10284108;28;20675;-57
2023/04/11 14:42:38;;;;;;;11.80;2.80;;;17.00;65.10;;;;;;10282694;28;20039;-58
2023/04/11 14:47:39;;;;;;;12.07;2.80;;;17.00;65.20;;;;;;10286244;28;20058;-58
2023/04/11 14:52:40;;;;;;;17.90;3.17;;;17.00;65.20;;;;;;10282524;28;20071;-58
2023/04/11 14:57:46;;;;;;;26.10;4.80;;;16.80;65.20;;;;;;10289885;28;20664;-58
2023/04/11 15:02:54;;;;;;;26.45;4.07;;;16.90;65.30;;;;;;10289658;28;20033;-59
2023/04/11 15:07:54;;;;;;;20.95;3.92;;;17.00;65.40;;;;;;10289172;28;20054;-58
2023/04/11 15:12:55;;;;;;;15.55;3.28;;;17.10;65.20;;;;;;10289560;28;20030;-59
2023/04/11 15:18:21;;;;;;;13.07;3.92;;;17.00;65.20;;;;;;10288712;28;20042;-58
2023/04/11 15:23:23;;;;;;;17.33;3.65;;;17.00;65.30;;;;;;10288364;28;20025;-58
2023/04/11 15:28:25;;;;;;;19.55;4.70;;;17.00;65.40;;;;;;10286718;28;20174;-57
2023/04/11 15:33:27;;;;;;;14.50;4.35;;;17.00;65.30;;;;;;10284147;28;20692;-56
2023/04/11 15:38:27;;;;;;;19.88;4.22;;;16.90;65.40;;;;;;10284451;28;20051;-57
2023/04/11 15:43:28;;;;;;;11.75;2.97;;;16.90;65.30;;;;;;10267680;28;20538;-57
2023/04/11 15:48:29;;;;;;;13.32;2.55;;;16.90;65.30;;;;;;10284985;28;20017;-58
2023/04/11 15:53:30;;;;;;;13.35;2.90;;;16.90;65.30;;;;;;10275210;28;20062;-57
2023/04/11 15:58:34;;;;;;;8.05;2.88;;;16.90;65.20;;;;;;10283459;28;20592;-58
2023/04/11 16:03:35;;;;;;;18.63;3.05;;;16.90;64.90;;;;;;10281503;28;20501;-56
2023/04/11 16:08:36;;;;;;;13.77;3.75;;;16.90;65.00;;;;;;10285180;28;20069;-58
2023/04/11 16:13:37;;;;;;;49.13;16.92;;;17.00;64.30;;;;;;10285777;28;20054;-55
2023/04/11 16:18:37;;;;;;;52.53;23.33;;;17.10;66.10;;;;;;10286400;28;20195;-57
2023/04/11 16:23:38;;;;;;;59.03;29.23;;;17.20;68.30;;;;;;10285874;28;20062;-57
2023/04/11 16:28:39;;;;;;;36.47;16.83;;;17.30;68.40;;;;;;10286217;28;20022;-58
2023/04/11 16:33:40;;;;;;;41.17;19.92;;;17.50;68.50;;;;;;10284592;28;20668;-58
2023/04/11 16:38:40;;;;;;;35.60;16.33;;;17.60;68.30;;;;;;10287009;28;20031;-56
2023/04/11 16:43:41;;;;;;;34.38;16.25;;;17.50;67.50;;;;;;10285017;28;20133;-58
2023/04/11 16:48:42;;;;;;;34.25;15.60;;;17.50;67.50;;;;;;10285159;28;20556;-59
2023/04/11 16:53:44;;;;;;;27.40;13.30;;;17.50;67.90;;;;;;10266704;28;20015;-58
2023/04/11 16:58:45;;;;;;;30.42;13.55;;;17.40;68.30;;;;;;10284366;28;20113;-58
2023/04/11 17:03:46;;;;;;;28.90;12.10;;;17.40;67.80;;;;;;10284456;28;20638;-57
2023/04/11 17:08:46;;;;;;;34.47;14.77;;;17.20;67.50;;;;;;10284865;28;20683;-56
2023/04/11 17:13:48;;;;;;;36.83;13.73;;;17.10;68.20;;;;;;10283483;28;20029;-58
2023/04/11 17:18:49;;;;;;;28.52;12.20;;;17.00;68.30;;;;;;10283790;28;20035;-57
2023/04/11 17:23:49;;;;;;;34.25;15.00;;;16.90;68.30;;;;;;10283766;28;20073;-58
2023/04/11 17:28:50;;;;;;;36.80;12.88;;;16.90;68.20;;;;;;10280439;28;20046;-54
2023/04/11 17:33:51;;;;;;;33.17;11.82;;;16.70;68.40;;;;;;10282650;28;20027;-56
2023/04/11 17:38:53;;;;;;;47.60;15.05;;;16.70;68.70;;;;;;10280878;28;20062;-57
2023/04/11 17:43:55;;;;;;;28.02;12.48;;;16.70;68.40;;;;;;10282076;28;20069;-57
2023/04/11 17:48:56;;;;;;;29.35;11.90;;;16.70;68.70;;;;;;10281838;28;20030;-56
2023/04/11 17:53:56;;;;;;;23.38;10.02;;;16.60;68.70;;;;;;10281902;28;20129;-57
2023/04/11 17:58:57;;;;;;;26.02;11.10;;;16.60;68.70;;;;;;10264752;28;20034;-57
2023/04/11 18:04:01;;;;;;;17.60;9.15;;;16.60;68.50;;;;;;10265266;28;20030;-56
2023/04/11 18:09:02;;;;;;;24.25;11.57;;;16.50;68.50;;;;;;10258571;28;20047;-57
2023/04/11 18:14:03;;;;;;;19.38;9.30;;;16.60;68.70;;;;;;10284776;28;20360;-57
2023/04/11 18:19:04;;;;;;;26.90;10.13;;;16.50;68.40;;;;;;10283514;28;20031;-58
2023/04/11 18:24:05;;;;;;;17.92;9.98;;;16.50;68.30;;;;;;10281515;28;20097;-58
2023/04/11 18:29:05;;;;;;;22.02;8.82;;;16.40;68.80;;;;;;10298620;28;20030;-57
2023/04/11 18:34:06;;;;;;;17.73;8.27;;;16.40;68.30;;;;;;10277822;28;20117;-58
2023/04/11 18:39:07;;;;;;;18.40;9.07;;;16.30;68.20;;;;;;10281035;28;20058;-58
2023/04/11 18:44:09;;;;;;;13.40;8.25;;;16.30;68.40;;;;;;10285680;28;20042;-56
2023/04/11 18:49:10;;;;;;;13.95;7.55;;;16.30;68.40;;;;;;10287138;28;20110;-57
2023/04/11 18:54:10;;;;;;;19.50;8.23;;;16.30;68.20;;;;;;10291776;28;20015;-57
2023/04/11 18:59:11;;;;;;;15.20;8.02;;;16.30;68.00;;;;;;10294387;28;20177;-58
2023/04/11 19:04:12;;;;;;;19.92;8.55;;;16.30;68.10;;;;;;10274818;28;20106;-57
2023/04/11 19:09:12;;;;;;;14.20;8.43;;;16.30;68.00;;;;;;10254324;28;20057;-56
2023/04/11 19:14:13;;;;;;;14.50;7.78;;;16.30;68.10;;;;;;10273547;28;20674;-57
2023/04/11 19:19:14;;;;;;;13.45;7.25;;;16.30;68.10;;;;;;10292351;28;20023;-57
2023/04/11 19:24:15;;;;;;;15.05;7.13;;;16.30;68.20;;;;;;10270234;28;20509;-55
2023/04/11 19:29:15;;;;;;;15.52;8.27;;;16.30;68.40;;;;;;10287991;28;20062;-56
2023/04/11 19:34:16;;;;;;;18.35;7.10;;;16.30;68.50;;;;;;10286930;28;20394;-57
2023/04/11 19:39:17;;;;;;;15.93;6.32;;;16.30;68.70;;;;;;10269016;28;20109;-57
2023/04/11 19:44:18;;;;;;;17.20;6.68;;;16.30;68.90;;;;;;10268818;28;20510;-57
2023/04/11 19:49:18;;;;;;;9.63;6.25;;;16.30;68.60;;;;;;10287242;28;20386;-57
2023/04/11 19:54:19;;;;;;;8.63;5.90;;;16.30;68.60;;;;;;10287149;28;20069;-57
2023/04/11 19:59:20;;;;;;;11.80;7.00;;;16.30;68.80;;;;;;10269102;28;20090;-57
2023/04/11 20:04:21;;;;;;;12.02;5.32;;;16.20;68.70;;;;;;10286131;28;20090;-57
2023/04/11 20:09:21;;;;;;;7.88;5.22;;;16.20;68.70;;;;;;10284283;28;20467;-56
2023/04/11 20:14:22;;;;;;;9.60;5.75;;;16.20;68.60;;;;;;10284291;28;20113;-56
2023/04/11 20:19:27;;;;;;;9.90;4.57;;;16.20;68.50;;;;;;10285149;28;20744;-57
2023/04/11 20:24:27;;;;;;;9.00;4.82;;;16.20;68.50;;;;;;10286367;28;20023;-58
2023/04/11 20:29:31;;;;;;;9.18;5.05;;;16.20;68.40;;;;;;10285897;28;20047;-57
2023/04/11 20:34:32;;;;;;;7.13;4.32;;;16.20;68.30;;;;;;10268814;28;20025;-57
2023/04/11 20:39:33;;;;;;;8.32;4.70;;;16.10;68.30;;;;;;10285401;28;20466;-56
2023/04/11 20:44:34;;;;;;;8.10;5.28;;;16.10;68.30;;;;;;10267950;28;20528;-57
2023/04/11 20:49:35;;;;;;;13.18;5.95;;;16.10;68.20;;;;;;10285949;28;20027;-57
2023/04/11 20:54:36;;;;;;;12.05;4.85;;;16.10;68.30;;;;;;10284974;28;20046;-57
2023/04/11 20:59:38;;;;;;;7.88;4.53;;;16.10;68.90;;;;;;10283609;28;20549;-57
2023/04/11 21:04:38;;;;;;;9.35;4.43;;;16.10;68.20;;;;;;10284790;28;20019;-57
2023/04/11 21:09:39;;;;;;;7.75;4.82;;;16.10;68.20;;;;;;10283006;28;20047;-57
2023/04/11 21:14:40;;;;;;;10.65;5.72;;;16.10;68.10;;;;;;10283962;28;20022;-57
2023/04/11 21:19:41;;;;;;;6.90;4.53;;;16.10;68.20;;;;;;10283054;28;20038;-57
2023/04/11 21:24:42;;;;;;;9.23;4.68;;;16.00;68.10;;;;;;10284509;28;20025;-57
2023/04/11 21:29:42;;;;;;;9.73;4.28;;;16.00;68.10;;;;;;10266882;28;20097;-57
2023/04/11 21:34:43;;;;;;;7.30;4.07;;;16.00;68.10;;;;;;10283809;28;20077;-57
2023/04/11 21:39:44;;;;;;;9.20;4.35;;;16.00;68.10;;;;;;10283523;28;20162;-57
2023/04/11 21:44:44;;;;;;;6.75;4.15;;;16.00;68.00;;;;;;10266377;28;20467;-57
2023/04/11 21:49:46;;;;;;;6.18;3.72;;;16.00;68.00;;;;;;10266313;28;20106;-57
2023/04/11 21:54:47;;;;;;;5.50;3.60;;;16.00;68.10;;;;;;10266381;28;20031;-57
2023/04/11 21:59:47;;;;;;;8.65;4.60;;;16.00;67.90;;;;;;10283244;28;20035;-57
2023/04/11 22:04:48;;;;;;;7.80;3.80;;;16.00;67.90;;;;;;10286986;28;20114;-55
2023/04/11 22:09:56;;;;;;;6.88;3.47;;;16.00;67.90;;;;;;10291147;28;20104;-56
2023/04/11 22:14:58;;;;;;;8.77;3.92;;;16.00;67.80;;;;;;10291172;28;20074;-57
2023/04/11 22:19:59;;;;;;;5.70;3.80;;;16.00;67.80;;;;;;10290929;28;20441;-57
2023/04/11 22:25:00;;;;;;;6.28;3.38;;;16.00;68.40;;;;;;10290492;28;20023;-57
2023/04/11 22:30:01;;;;;;;6.55;3.63;;;16.00;67.80;;;;;;10273195;28;20110;-57
2023/04/11 22:35:03;;;;;;;6.30;4.00;;;16.00;67.80;;;;;;10290249;28;20026;-57
2023/04/11 22:40:05;;;;;;;7.75;3.50;;;15.90;67.60;;;;;;10290277;28;20652;-57
2023/04/11 22:45:07;;;;;;;5.35;2.72;;;15.90;67.60;;;;;;10290299;28;20487;-56
2023/04/11 22:50:08;;;;;;;6.57;3.58;;;15.90;67.60;;;;;;10289710;28;20030;-57
2023/04/11 22:55:09;;;;;;;5.05;3.45;;;15.90;67.50;;;;;;10272533;28;20521;-57
2023/04/11 23:00:14;;;;;;;5.95;2.72;;;15.90;67.60;;;;;;10271931;28;20069;-58
2023/04/11 23:05:15;;;;;;;7.03;3.13;;;15.90;67.60;;;;;;10289206;28;20110;-55
2023/04/11 23:10:17;;;;;;;5.65;2.85;;;15.90;67.50;;;;;;10289158;28;20053;-57
2023/04/11 23:15:19;;;;;;;5.45;2.90;;;15.90;67.60;;;;;;10288798;28;20066;-57
2023/04/11 23:20:20;;;;;;;4.70;2.75;;;15.90;67.60;;;;;;10283253;28;20039;-57
2023/04/11 23:25:21;;;;;;;4.60;3.00;;;15.90;67.60;;;;;;10288377;28;20390;-57
2023/04/11 23:30:22;;;;;;;5.78;3.25;;;15.90;67.60;;;;;;10288086;28;20035;-57
2023/04/11 23:35:23;;;;;;;7.78;2.90;;;15.90;67.60;;;;;;10271184;28;20046;-57
2023/04/11 23:40:23;;;;;;;5.05;2.78;;;15.90;67.60;;;;;;10270620;28;20118;-57
2023/04/11 23:45:24;;;;;;;3.78;2.40;;;15.80;67.60;;;;;;10287531;28;20078;-57
2023/04/11 23:50:25;;;;;;;4.45;2.13;;;15.90;67.60;;;;;;10287755;28;20382;-56
2023/04/11 23:55:26;;;;;;;5.70;2.90;;;15.80;67.50;;;;;;10287354;28;20050;-57
